sensor_id;sensor_type;location;lat;lon;timestamp;temperature;humidity
6377;DHT22;3221;48.858;10.128;2024-01-15T00:01:02;-4.50;99.90
6377;DHT22;3221;48.858;10.128;2024-01-15T00:03:30;-4.40;99.90
6377;DHT22;3221;48.858;10.128;2024-01-15T00:05:57;-4.40;99.90
6377;DHT22;3221;48.858;10.128;2024-01-15T00:08:24;-4.40;99.90
6377;DHT22;3221;48.858;10.128;2024-01-15T00:10:50;-4.40;99.90
6377;DHT22;3221;48.858;10.128;2024-01-15T00:13:18;-4.40;99.90
6377;DHT22;3221;48.858;10.128;2024-01-15T00:15:45;-4.30;99.90
6377;DHT22;3221;48.858;10.128;2024-01-15T00:18:13;-4.30;99.90
6377;DHT22;3221;48.858;10.128;2024-01-15T00:20:40;-4.40;99.90
6377;DHT22;3221;48.858;10.128;2024-01-15T00:23:07;-4.30;99.90
6377;DHT22;3221;48.858;10.128;2024-01-15T00:25:33;-4.30;99.90
6377;DHT22;3221;48.858;10.128;2024-01-15T00:28:00;-4.30;99.90
6377;DHT22;3221;48.858;10.128;2024-01-15T00:30:27;-4.40;99.90
6377;DHT22;3221;48.858;10.128;2024-01-15T00:32:54;-4.40;99.90
6377;DHT22;3221;48.858;10.128;2024-01-15T00:35:21;-4.30;99.90
6377;DHT22;3221;48.858;10.128;2024-01-15T00:37:48;-4.30;99.90
6377;DHT22;3221;48.858;10.128;2024-01-15T00:40:15;-4.30;99.90
6377;DHT22;3221;48.858;10.128;2024-01-15T00:42:42;-4.40;99.90
6377;DHT22;3221;48.858;10.128;2024-01-15T00:45:10;-4.30;99.90
6377;DHT22;3221;48.858;10.128;2024-01-15T00:47:37;-4.40;99.90
6377;DHT22;3221;48.858;10.128;2024-01-15T00:50:05;-4.40;99.90
6377;DHT22;3221;48.858;10.128;2024-01-15T00:52:32;-4.30;99.90
6377;DHT22;3221;48.858;10.128;2024-01-15T00:54:59;-4.40;99.90
6377;DHT22;3221;48.858;10.128;2024-01-15T00:57:26;-4.20;99.90
6377;DHT22;3221;48.858;10.128;2024-01-15T00:59:53;-4.40;99.90
6377;DHT22;3221;48.858;10.128;2024-01-15T01:02:20;-4.50;99.90
6377;DHT22;3221;48.858;10.128;2024-01-15T01:04:47;-4.50;99.90
6377;DHT22;3221;48.858;10.128;2024-01-15T01:07:14;-4.30;99.90
6377;DHT22;3221;48.858;10.128;2024-01-15T01:09:40;-4.30;99.90
6377;DHT22;3221;48.858;10.128;2024-01-15T01:12:07;-4.20;99.90
6377;DHT22;3221;48.858;10.128;2024-01-15T01:14:34;-4.20;99.90
6377;DHT22;3221;48.858;10.128;2024-01-15T01:17:01;-4.30;99.90
6377;DHT22;3221;48.858;10.128;2024-01-15T01:19:28;-4.40;99.90
6377;DHT22;3221;48.858;10.128;2024-01-15T01:21:55;-4.40;99.90
6377;DHT22;3221;48.858;10.128;2024-01-15T01:24:22;-4.30;99.90
6377;DHT22;3221;48.858;10.128;2024-01-15T01:26:48;-4.20;99.90
6377;DHT22;3221;48.858;10.128;2024-01-15T01:29:15;-4.20;99.90
6377;DHT22;3221;48.858;10.128;2024-01-15T01:31:45;-3.90;99.90
6377;DHT22;3221;48.858;10.128;2024-01-15T01:34:16;-3.80;99.90
6377;DHT22;3221;48.858;10.128;2024-01-15T01:36:43;-4.00;99.90
6377;DHT22;3221;48.858;10.128;2024-01-15T01:39:11;-4.20;99.90
6377;DHT22;3221;48.858;10.128;2024-01-15T01:41:38;-4.20;99.90
6377;DHT22;3221;48.858;10.128;2024-01-15T01:44:06;-4.10;99.90
6377;DHT22;3221;48.858;10.128;2024-01-15T01:46:34;-4.20;99.90
6377;DHT22;3221;48.858;10.128;2024-01-15T01:49:07;-4.30;99.90
6377;DHT22;3221;48.858;10.128;2024-01-15T01:51:35;-4.20;99.90
6377;DHT22;3221;48.858;10.128;2024-01-15T01:54:04;-4.10;99.90
6377;DHT22;3221;48.858;10.128;2024-01-15T01:56:31;-4.10;99.90
6377;DHT22;3221;48.858;10.128;2024-01-15T01:58:58;-4.20;99.90
6377;DHT22;3221;48.858;10.128;2024-01-15T02:01:29;-4.20;99.90
6377;DHT22;3221;48.858;10.128;2024-01-15T02:03:56;-4.10;99.90
6377;DHT22;3221;48.858;10.128;2024-01-15T02:06:23;-4.10;99.90
6377;DHT22;3221;48.858;10.128;2024-01-15T02:08:51;-4.10;99.90
6377;DHT22;3221;48.858;10.128;2024-01-15T02:11:18;-4.20;99.90
6377;DHT22;3221;48.858;10.128;2024-01-15T02:13:45;-4.20;99.90
6377;DHT22;3221;48.858;10.128;2024-01-15T02:16:12;-4.20;99.90
6377;DHT22;3221;48.858;10.128;2024-01-15T02:18:43;-4.10;99.90
6377;DHT22;3221;48.858;10.128;2024-01-15T02:21:10;-4.10;99.90
6377;DHT22;3221;48.858;10.128;2024-01-15T02:23:39;-4.20;99.90
6377;DHT22;3221;48.858;10.128;2024-01-15T02:26:06;-4.20;99.90
6377;DHT22;3221;48.858;10.128;2024-01-15T02:28:34;-4.00;99.90
6377;DHT22;3221;48.858;10.128;2024-01-15T02:31:01;-4.00;99.90
6377;DHT22;3221;48.858;10.128;2024-01-15T02:33:28;-4.00;99.90
6377;DHT22;3221;48.858;10.128;2024-01-15T02:35:55;-4.10;99.90
6377;DHT22;3221;48.858;10.128;2024-01-15T02:38:22;-4.10;99.90
6377;DHT22;3221;48.858;10.128;2024-01-15T02:40:49;-4.00;99.90
6377;DHT22;3221;48.858;10.128;2024-01-15T02:43:17;-4.00;99.90
6377;DHT22;3221;48.858;10.128;2024-01-15T02:45:46;-4.00;99.90
6377;DHT22;3221;48.858;10.128;2024-01-15T02:48:13;-4.00;99.90
6377;DHT22;3221;48.858;10.128;2024-01-15T02:50:41;-4.00;99.90
6377;DHT22;3221;48.858;10.128;2024-01-15T02:53:08;-4.00;99.90
6377;DHT22;3221;48.858;10.128;2024-01-15T02:55:35;-4.00;99.90
6377;DHT22;3221;48.858;10.128;2024-01-15T02:58:03;-3.90;99.90
6377;DHT22;3221;48.858;10.128;2024-01-15T03:00:30;-4.00;99.90
6377;DHT22;3221;48.858;10.128;2024-01-15T03:02:57;-4.00;99.90
6377;DHT22;3221;48.858;10.128;2024-01-15T03:05:24;-4.00;99.90
6377;DHT22;3221;48.858;10.128;2024-01-15T03:07:51;-4.00;99.90
6377;DHT22;3221;48.858;10.128;2024-01-15T03:10:17;-4.00;99.90
6377;DHT22;3221;48.858;10.128;2024-01-15T03:12:44;-4.00;99.90
6377;DHT22;3221;48.858;10.128;2024-01-15T03:15:11;-3.90;99.90
6377;DHT22;3221;48.858;10.128;2024-01-15T03:17:38;-3.90;99.90
6377;DHT22;3221;48.858;10.128;2024-01-15T03:20:05;-3.90;99.90
6377;DHT22;3221;48.858;10.128;2024-01-15T03:22:32;-3.90;99.90
6377;DHT22;3221;48.858;10.128;2024-01-15T03:24:59;-3.90;99.90
6377;DHT22;3221;48.858;10.128;2024-01-15T03:27:26;-3.90;99.90
6377;DHT22;3221;48.858;10.128;2024-01-15T03:29:53;-3.80;99.90
6377;DHT22;3221;48.858;10.128;2024-01-15T03:32:20;-3.80;99.90
6377;DHT22;3221;48.858;10.128;2024-01-15T03:34:47;-3.80;99.90
6377;DHT22;3221;48.858;10.128;2024-01-15T03:37:14;-3.80;99.90
6377;DHT22;3221;48.858;10.128;2024-01-15T03:39:41;-3.80;99.90
6377;DHT22;3221;48.858;10.128;2024-01-15T03:42:09;-3.80;99.90
6377;DHT22;3221;48.858;10.128;2024-01-15T03:44:35;-3.80;99.90
6377;DHT22;3221;48.858;10.128;2024-01-15T03:47:02;-3.70;99.90
6377;DHT22;3221;48.858;10.128;2024-01-15T03:49:29;-3.70;99.90
6377;DHT22;3221;48.858;10.128;2024-01-15T03:51:57;-3.70;99.90
6377;DHT22;3221;48.858;10.128;2024-01-15T03:54:24;-3.70;99.90
6377;DHT22;3221;48.858;10.128;2024-01-15T03:56:51;-3.70;99.90
6377;DHT22;3221;48.858;10.128;2024-01-15T03:59:17;-3.70;99.90
6377;DHT22;3221;48.858;10.128;2024-01-15T04:01:51;-3.70;99.90
6377;DHT22;3221;48.858;10.128;2024-01-15T04:04:18;-3.70;99.90
6377;DHT22;3221;48.858;10.128;2024-01-15T04:06:45;-3.80;99.90
6377;DHT22;3221;48.858;10.128;2024-01-15T04:09:13;-3.70;99.90
6377;DHT22;3221;48.858;10.128;2024-01-15T04:11:41;-3.70;99.90
6377;DHT22;3221;48.858;10.128;2024-01-15T04:14:08;-3.70;99.90
6377;DHT22;3221;48.858;10.128;2024-01-15T04:16:35;-3.60;99.90
6377;DHT22;3221;48.858;10.128;2024-01-15T04:19:03;-3.70;99.90
6377;DHT22;3221;48.858;10.128;2024-01-15T04:21:30;-3.60;99.90
6377;DHT22;3221;48.858;10.128;2024-01-15T04:23:57;-3.60;99.90
6377;DHT22;3221;48.858;10.128;2024-01-15T04:26:24;-3.60;99.90
6377;DHT22;3221;48.858;10.128;2024-01-15T04:28:51;-3.50;99.90
6377;DHT22;3221;48.858;10.128;2024-01-15T04:31:24;-3.60;99.90
6377;DHT22;3221;48.858;10.128;2024-01-15T04:33:53;-3.60;99.90
6377;DHT22;3221;48.858;10.128;2024-01-15T04:36:21;-3.60;99.90
6377;DHT22;3221;48.858;10.128;2024-01-15T04:38:47;-3.60;99.90
6377;DHT22;3221;48.858;10.128;2024-01-15T04:41:16;-3.60;99.90
6377;DHT22;3221;48.858;10.128;2024-01-15T04:43:43;-3.50;99.90
6377;DHT22;3221;48.858;10.128;2024-01-15T04:46:10;-3.50;99.90
6377;DHT22;3221;48.858;10.128;2024-01-15T04:48:37;-3.50;99.90
6377;DHT22;3221;48.858;10.128;2024-01-15T04:51:05;-3.50;99.90
6377;DHT22;3221;48.858;10.128;2024-01-15T04:53:34;-3.60;99.90
6377;DHT22;3221;48.858;10.128;2024-01-15T04:56:01;-3.60;99.90
6377;DHT22;3221;48.858;10.128;2024-01-15T04:58:28;-3.60;99.90
6377;DHT22;3221;48.858;10.128;2024-01-15T05:00:56;-3.60;99.90
6377;DHT22;3221;48.858;10.128;2024-01-15T05:03:23;-3.60;99.90
6377;DHT22;3221;48.858;10.128;2024-01-15T05:05:50;-3.60;99.90
6377;DHT22;3221;48.858;10.128;2024-01-15T05:08:17;-3.60;99.90
6377;DHT22;3221;48.858;10.128;2024-01-15T05:10:43;-3.50;99.90
6377;DHT22;3221;48.858;10.128;2024-01-15T05:13:10;-3.40;99.90
6377;DHT22;3221;48.858;10.128;2024-01-15T05:15:37;-3.50;99.90
6377;DHT22;3221;48.858;10.128;2024-01-15T05:18:05;-3.50;99.90
6377;DHT22;3221;48.858;10.128;2024-01-15T05:20:32;-3.40;99.90
6377;DHT22;3221;48.858;10.128;2024-01-15T05:22:59;-3.50;99.90
6377;DHT22;3221;48.858;10.128;2024-01-15T05:25:26;-3.50;99.90
6377;DHT22;3221;48.858;10.128;2024-01-15T05:27:53;-3.50;99.90
6377;DHT22;3221;48.858;10.128;2024-01-15T05:30:20;-3.40;99.90
6377;DHT22;3221;48.858;10.128;2024-01-15T05:32:46;-3.50;99.90
6377;DHT22;3221;48.858;10.128;2024-01-15T05:35:13;-3.40;99.90
6377;DHT22;3221;48.858;10.128;2024-01-15T05:37:44;-3.40;99.90
6377;DHT22;3221;48.858;10.128;2024-01-15T05:40:12;-3.40;99.90
6377;DHT22;3221;48.858;10.128;2024-01-15T05:42:40;-3.40;99.90
6377;DHT22;3221;48.858;10.128;2024-01-15T05:45:07;-3.40;99.90
6377;DHT22;3221;48.858;10.128;2024-01-15T05:47:34;-3.50;99.90
6377;DHT22;3221;48.858;10.128;2024-01-15T05:50:01;-3.40;99.90
6377;DHT22;3221;48.858;10.128;2024-01-15T05:52:29;-3.40;99.90
6377;DHT22;3221;48.858;10.128;2024-01-15T05:54:56;-3.30;99.90
6377;DHT22;3221;48.858;10.128;2024-01-15T05:57:23;-3.40;99.90
6377;DHT22;3221;48.858;10.128;2024-01-15T05:59:50;-3.40;99.90
6377;DHT22;3221;48.858;10.128;2024-01-15T06:02:17;-3.40;99.90
6377;DHT22;3221;48.858;10.128;2024-01-15T06:04:44;-3.40;99.90
6377;DHT22;3221;48.858;10.128;2024-01-15T06:07:11;-3.40;99.90
6377;DHT22;3221;48.858;10.128;2024-01-15T06:09:37;-3.40;99.90
6377;DHT22;3221;48.858;10.128;2024-01-15T06:12:06;-3.40;99.90
6377;DHT22;3221;48.858;10.128;2024-01-15T06:14:33;-3.40;99.90
6377;DHT22;3221;48.858;10.128;2024-01-15T06:17:00;-3.40;99.90
6377;DHT22;3221;48.858;10.128;2024-01-15T06:19:27;-3.40;99.90
6377;DHT22;3221;48.858;10.128;2024-01-15T06:21:54;-3.40;99.90
6377;DHT22;3221;48.858;10.128;2024-01-15T06:24:21;-3.40;99.90
6377;DHT22;3221;48.858;10.128;2024-01-15T06:26:48;-3.30;99.90
6377;DHT22;3221;48.858;10.128;2024-01-15T06:29:15;-3.30;99.90
6377;DHT22;3221;48.858;10.128;2024-01-15T06:31:42;-3.30;99.90
6377;DHT22;3221;48.858;10.128;2024-01-15T06:34:09;-3.40;99.90
6377;DHT22;3221;48.858;10.128;2024-01-15T06:36:36;-3.40;99.90
6377;DHT22;3221;48.858;10.128;2024-01-15T06:39:03;-3.30;99.90
6377;DHT22;3221;48.858;10.128;2024-01-15T06:41:30;-3.30;99.90
6377;DHT22;3221;48.858;10.128;2024-01-15T06:43:57;-3.30;99.90
6377;DHT22;3221;48.858;10.128;2024-01-15T06:46:24;-3.40;99.90
6377;DHT22;3221;48.858;10.128;2024-01-15T06:48:51;-3.30;99.90
6377;DHT22;3221;48.858;10.128;2024-01-15T06:51:18;-3.30;99.90
6377;DHT22;3221;48.858;10.128;2024-01-15T06:56:34;-3.30;99.90
6377;DHT22;3221;48.858;10.128;2024-01-15T06:59:01;-3.30;99.90
6377;DHT22;3221;48.858;10.128;2024-01-15T07:01:28;-3.30;99.90
6377;DHT22;3221;48.858;10.128;2024-01-15T07:03:55;-3.30;99.90
6377;DHT22;3221;48.858;10.128;2024-01-15T07:06:22;-3.30;99.90
6377;DHT22;3221;48.858;10.128;2024-01-15T07:08:49;-3.30;99.90
6377;DHT22;3221;48.858;10.128;2024-01-15T07:11:16;-3.30;99.90
6377;DHT22;3221;48.858;10.128;2024-01-15T07:13:43;-3.30;99.90
6377;DHT22;3221;48.858;10.128;2024-01-15T07:16:10;-3.30;99.90
6377;DHT22;3221;48.858;10.128;2024-01-15T07:18:37;-3.30;99.90
6377;DHT22;3221;48.858;10.128;2024-01-15T07:21:04;-3.30;99.90
6377;DHT22;3221;48.858;10.128;2024-01-15T07:23:31;-3.30;99.90
6377;DHT22;3221;48.858;10.128;2024-01-15T07:25:58;-3.30;99.90
6377;DHT22;3221;48.858;10.128;2024-01-15T07:28:25;-3.30;99.90
6377;DHT22;3221;48.858;10.128;2024-01-15T07:30:52;-3.20;99.90
6377;DHT22;3221;48.858;10.128;2024-01-15T07:33:19;-3.20;99.90
6377;DHT22;3221;48.858;10.128;2024-01-15T07:35:46;-3.20;99.90
6377;DHT22;3221;48.858;10.128;2024-01-15T07:38:13;-3.20;99.90
6377;DHT22;3221;48.858;10.128;2024-01-15T07:40:40;-3.20;99.90
6377;DHT22;3221;48.858;10.128;2024-01-15T07:43:07;-3.10;99.90
6377;DHT22;3221;48.858;10.128;2024-01-15T07:45:34;-3.10;99.90
6377;DHT22;3221;48.858;10.128;2024-01-15T07:48:01;-3.10;99.90
6377;DHT22;3221;48.858;10.128;2024-01-15T07:50:28;-3.10;99.90
6377;DHT22;3221;48.858;10.128;2024-01-15T07:52:55;-3.10;99.90
6377;DHT22;3221;48.858;10.128;2024-01-15T07:55:22;-3.10;99.90
6377;DHT22;3221;48.858;10.128;2024-01-15T07:57:49;-3.10;99.90
6377;DHT22;3221;48.858;10.128;2024-01-15T08:00:28;-3.10;99.90
6377;DHT22;3221;48.858;10.128;2024-01-15T08:02:55;-3.10;99.90
6377;DHT22;3221;48.858;10.128;2024-01-15T08:05:22;-3.10;99.90
6377;DHT22;3221;48.858;10.128;2024-01-15T08:07:49;-3.10;99.90
6377;DHT22;3221;48.858;10.128;2024-01-15T08:10:15;-3.10;99.90
6377;DHT22;3221;48.858;10.128;2024-01-15T08:12:42;-3.10;99.90
6377;DHT22;3221;48.858;10.128;2024-01-15T08:15:09;-3.10;99.90
6377;DHT22;3221;48.858;10.128;2024-01-15T08:17:36;-3.20;99.90
6377;DHT22;3221;48.858;10.128;2024-01-15T08:20:03;-3.10;99.90
6377;DHT22;3221;48.858;10.128;2024-01-15T08:22:32;-3.10;99.90
6377;DHT22;3221;48.858;10.128;2024-01-15T08:24:58;-3.00;99.90
6377;DHT22;3221;48.858;10.128;2024-01-15T08:27:25;-3.00;99.90
6377;DHT22;3221;48.858;10.128;2024-01-15T08:29:52;-3.00;99.90
6377;DHT22;3221;48.858;10.128;2024-01-15T08:32:19;-3.00;99.90
6377;DHT22;3221;48.858;10.128;2024-01-15T08:34:46;-3.00;99.90
6377;DHT22;3221;48.858;10.128;2024-01-15T08:37:15;-3.00;99.90
6377;DHT22;3221;48.858;10.128;2024-01-15T08:39:42;-3.00;99.90
6377;DHT22;3221;48.858;10.128;2024-01-15T08:42:09;-3.00;99.90
6377;DHT22;3221;48.858;10.128;2024-01-15T08:44:37;-2.90;99.90
6377;DHT22;3221;48.858;10.128;2024-01-15T08:47:07;-3.00;99.90
6377;DHT22;3221;48.858;10.128;2024-01-15T08:49:33;-3.00;99.90
6377;DHT22;3221;48.858;10.128;2024-01-15T08:52:00;-3.00;99.90
6377;DHT22;3221;48.858;10.128;2024-01-15T08:54:27;-3.00;99.90
6377;DHT22;3221;48.858;10.128;2024-01-15T08:56:54;-2.90;99.90
6377;DHT22;3221;48.858;10.128;2024-01-15T08:59:21;-2.90;99.90
6377;DHT22;3221;48.858;10.128;2024-01-15T09:01:52;-3.00;99.90
6377;DHT22;3221;48.858;10.128;2024-01-15T09:04:19;-3.00;99.90
6377;DHT22;3221;48.858;10.128;2024-01-15T09:06:46;-3.00;99.90
6377;DHT22;3221;48.858;10.128;2024-01-15T09:09:13;-2.90;99.90
6377;DHT22;3221;48.858;10.128;2024-01-15T09:11:43;-2.90;99.90
6377;DHT22;3221;48.858;10.128;2024-01-15T09:14:10;-2.90;99.90
6377;DHT22;3221;48.858;10.128;2024-01-15T09:16:36;-2.90;99.90
6377;DHT22;3221;48.858;10.128;2024-01-15T09:19:04;-2.90;99.90
6377;DHT22;3221;48.858;10.128;2024-01-15T09:21:31;-2.80;99.90
6377;DHT22;3221;48.858;10.128;2024-01-15T09:23:57;-2.80;99.90
6377;DHT22;3221;48.858;10.128;2024-01-15T09:26:24;-2.80;99.90
6377;DHT22;3221;48.858;10.128;2024-01-15T09:28:52;-2.80;99.90
6377;DHT22;3221;48.858;10.128;2024-01-15T09:31:19;-2.90;99.90
6377;DHT22;3221;48.858;10.128;2024-01-15T09:33:47;-2.90;99.90
6377;DHT22;3221;48.858;10.128;2024-01-15T09:36:14;-2.90;99.90
6377;DHT22;3221;48.858;10.128;2024-01-15T09:38:41;-2.80;99.90
6377;DHT22;3221;48.858;10.128;2024-01-15T09:41:08;-2.80;99.90
6377;DHT22;3221;48.858;10.128;2024-01-15T09:43:36;-2.80;99.90
6377;DHT22;3221;48.858;10.128;2024-01-15T09:46:04;-2.70;99.90
6377;DHT22;3221;48.858;10.128;2024-01-15T09:48:31;-2.70;99.90
6377;DHT22;3221;48.858;10.128;2024-01-15T09:51:01;-2.70;99.90
6377;DHT22;3221;48.858;10.128;2024-01-15T09:53:29;-2.70;99.90
6377;DHT22;3221;48.858;10.128;2024-01-15T09:55:57;-2.70;99.90
6377;DHT22;3221;48.858;10.128;2024-01-15T09:58:24;-2.70;99.90
6377;DHT22;3221;48.858;10.128;2024-01-15T10:00:52;-2.70;99.90
6377;DHT22;3221;48.858;10.128;2024-01-15T10:03:19;-2.70;99.90
6377;DHT22;3221;48.858;10.128;2024-01-15T10:05:48;-2.60;99.90
6377;DHT22;3221;48.858;10.128;2024-01-15T10:08:15;-2.60;99.90
6377;DHT22;3221;48.858;10.128;2024-01-15T10:10:43;-2.60;99.90
6377;DHT22;3221;48.858;10.128;2024-01-15T10:13:10;-2.60;99.90
6377;DHT22;3221;48.858;10.128;2024-01-15T10:15:38;-2.60;99.90
6377;DHT22;3221;48.858;10.128;2024-01-15T10:18:05;-2.60;99.90
6377;DHT22;3221;48.858;10.128;2024-01-15T10:20:32;-2.70;99.90
6377;DHT22;3221;48.858;10.128;2024-01-15T10:22:59;-2.60;99.90
6377;DHT22;3221;48.858;10.128;2024-01-15T10:25:26;-2.70;99.90
6377;DHT22;3221;48.858;10.128;2024-01-15T10:28:03;-2.60;99.90
6377;DHT22;3221;48.858;10.128;2024-01-15T10:30:33;-2.60;99.90
6377;DHT22;3221;48.858;10.128;2024-01-15T10:33:02;-2.60;99.90
6377;DHT22;3221;48.858;10.128;2024-01-15T10:35:34;-2.50;99.90
6377;DHT22;3221;48.858;10.128;2024-01-15T10:38:01;-2.50;99.90
6377;DHT22;3221;48.858;10.128;2024-01-15T10:40:29;-2.50;99.90
6377;DHT22;3221;48.858;10.128;2024-01-15T10:42:56;-2.50;99.90
6377;DHT22;3221;48.858;10.128;2024-01-15T10:45:24;-2.50;99.90
6377;DHT22;3221;48.858;10.128;2024-01-15T10:47:51;-2.50;99.90
6377;DHT22;3221;48.858;10.128;2024-01-15T10:50:20;-2.50;99.90
6377;DHT22;3221;48.858;10.128;2024-01-15T10:52:47;-2.50;99.90
6377;DHT22;3221;48.858;10.128;2024-01-15T10:55:14;-2.50;99.90
6377;DHT22;3221;48.858;10.128;2024-01-15T10:57:48;-2.50;99.90
6377;DHT22;3221;48.858;10.128;2024-01-15T11:00:16;-2.50;99.90
6377;DHT22;3221;48.858;10.128;2024-01-15T11:02:44;-2.50;99.90
6377;DHT22;3221;48.858;10.128;2024-01-15T11:05:11;-2.50;99.90
6377;DHT22;3221;48.858;10.128;2024-01-15T11:07:39;-2.50;99.90
6377;DHT22;3221;48.858;10.128;2024-01-15T11:10:08;-2.40;99.90
6377;DHT22;3221;48.858;10.128;2024-01-15T11:12:55;-2.40;99.90
6377;DHT22;3221;48.858;10.128;2024-01-15T11:15:22;-2.40;99.90
6377;DHT22;3221;48.858;10.128;2024-01-15T11:18:00;-2.30;99.90
6377;DHT22;3221;48.858;10.128;2024-01-15T11:20:32;-2.30;99.90
6377;DHT22;3221;48.858;10.128;2024-01-15T11:22:59;-2.30;99.90
6377;DHT22;3221;48.858;10.128;2024-01-15T11:25:34;-2.40;99.90
6377;DHT22;3221;48.858;10.128;2024-01-15T11:28:04;-2.30;99.90
6377;DHT22;3221;48.858;10.128;2024-01-15T11:30:31;-2.40;99.90
6377;DHT22;3221;48.858;10.128;2024-01-15T11:32:58;-2.30;99.90
6377;DHT22;3221;48.858;10.128;2024-01-15T11:35:48;-2.30;99.90
6377;DHT22;3221;48.858;10.128;2024-01-15T11:38:26;-2.30;99.90
6377;DHT22;3221;48.858;10.128;2024-01-15T11:40:54;-2.30;99.90
6377;DHT22;3221;48.858;10.128;2024-01-15T11:43:22;-2.30;99.90
6377;DHT22;3221;48.858;10.128;2024-01-15T11:45:52;-2.40;99.90
6377;DHT22;3221;48.858;10.128;2024-01-15T11:48:20;-2.30;99.90
6377;DHT22;3221;48.858;10.128;2024-01-15T11:50:51;-2.30;99.90
6377;DHT22;3221;48.858;10.128;2024-01-15T11:53:29;-2.30;99.90
6377;DHT22;3221;48.858;10.128;2024-01-15T11:55:59;-2.30;99.90
6377;DHT22;3221;48.858;10.128;2024-01-15T11:58:28;-2.30;99.90
6377;DHT22;3221;48.858;10.128;2024-01-15T12:00:55;-2.30;99.90
6377;DHT22;3221;48.858;10.128;2024-01-15T12:03:23;-2.30;99.90
6377;DHT22;3221;48.858;10.128;2024-01-15T12:05:54;-2.30;99.90
6377;DHT22;3221;48.858;10.128;2024-01-15T12:08:22;-2.40;99.90
6377;DHT22;3221;48.858;10.128;2024-01-15T12:10:49;-2.40;99.90
6377;DHT22;3221;48.858;10.128;2024-01-15T12:13:16;-2.40;99.90
6377;DHT22;3221;48.858;10.128;2024-01-15T12:15:47;-2.30;99.90
6377;DHT22;3221;48.858;10.128;2024-01-15T12:18:17;-2.40;99.90
6377;DHT22;3221;48.858;10.128;2024-01-15T12:20:45;-2.40;99.90
6377;DHT22;3221;48.858;10.128;2024-01-15T12:23:15;-2.40;99.90
6377;DHT22;3221;48.858;10.128;2024-01-15T12:25:44;-2.40;99.90
6377;DHT22;3221;48.858;10.128;2024-01-15T12:28:11;-2.40;99.90
6377;DHT22;3221;48.858;10.128;2024-01-15T12:30:39;-2.40;99.90
6377;DHT22;3221;48.858;10.128;2024-01-15T12:33:07;-2.30;99.90
6377;DHT22;3221;48.858;10.128;2024-01-15T12:35:36;-2.40;99.90
6377;DHT22;3221;48.858;10.128;2024-01-15T12:38:04;-2.30;99.90
6377;DHT22;3221;48.858;10.128;2024-01-15T12:40:33;-2.40;99.90
6377;DHT22;3221;48.858;10.128;2024-01-15T12:43:02;-2.30;99.90
6377;DHT22;3221;48.858;10.128;2024-01-15T12:45:30;-2.30;99.90
6377;DHT22;3221;48.858;10.128;2024-01-15T12:47:57;-2.30;99.90
6377;DHT22;3221;48.858;10.128;2024-01-15T12:50:25;-2.30;99.90
6377;DHT22;3221;48.858;10.128;2024-01-15T12:52:52;-2.30;99.90
6377;DHT22;3221;48.858;10.128;2024-01-15T12:55:19;-2.30;99.90
6377;DHT22;3221;48.858;10.128;2024-01-15T12:57:46;-2.30;99.90
6377;DHT22;3221;48.858;10.128;2024-01-15T13:00:14;-2.20;99.90
6377;DHT22;3221;48.858;10.128;2024-01-15T13:02:44;-2.30;99.90
6377;DHT22;3221;48.858;10.128;2024-01-15T13:05:12;-2.30;99.90
6377;DHT22;3221;48.858;10.128;2024-01-15T13:07:41;-2.30;99.90
6377;DHT22;3221;48.858;10.128;2024-01-15T13:10:09;-2.30;99.90
6377;DHT22;3221;48.858;10.128;2024-01-15T13:12:37;-2.30;99.90
6377;DHT22;3221;48.858;10.128;2024-01-15T13:15:05;-2.30;99.90
6377;DHT22;3221;48.858;10.128;2024-01-15T13:17:32;-2.30;99.90
6377;DHT22;3221;48.858;10.128;2024-01-15T13:19:59;-2.30;99.90
6377;DHT22;3221;48.858;10.128;2024-01-15T13:22:27;-2.20;99.90
6377;DHT22;3221;48.858;10.128;2024-01-15T13:24:59;-2.30;99.90
6377;DHT22;3221;48.858;10.128;2024-01-15T13:27:26;-2.10;99.90
6377;DHT22;3221;48.858;10.128;2024-01-15T13:29:54;-2.20;99.90
6377;DHT22;3221;48.858;10.128;2024-01-15T13:32:24;-2.20;99.90
6377;DHT22;3221;48.858;10.128;2024-01-15T13:34:57;-2.20;99.90
6377;DHT22;3221;48.858;10.128;2024-01-15T13:37:24;-2.20;99.90
6377;DHT22;3221;48.858;10.128;2024-01-15T13:39:52;-2.20;99.90
6377;DHT22;3221;48.858;10.128;2024-01-15T13:42:20;-2.20;99.90
6377;DHT22;3221;48.858;10.128;2024-01-15T13:44:49;-2.20;99.90
6377;DHT22;3221;48.858;10.128;2024-01-15T13:47:16;-2.30;99.90
6377;DHT22;3221;48.858;10.128;2024-01-15T13:49:43;-2.20;99.90
6377;DHT22;3221;48.858;10.128;2024-01-15T13:52:10;-2.20;99.90
6377;DHT22;3221;48.858;10.128;2024-01-15T13:54:36;-2.20;99.90
6377;DHT22;3221;48.858;10.128;2024-01-15T13:57:16;-2.20;99.90
6377;DHT22;3221;48.858;10.128;2024-01-15T13:59:43;-2.20;99.90
6377;DHT22;3221;48.858;10.128;2024-01-15T14:02:10;-2.20;99.90
6377;DHT22;3221;48.858;10.128;2024-01-15T14:04:38;-2.20;99.90
6377;DHT22;3221;48.858;10.128;2024-01-15T14:07:05;-2.20;99.90
6377;DHT22;3221;48.858;10.128;2024-01-15T14:09:33;-2.10;99.90
6377;DHT22;3221;48.858;10.128;2024-01-15T14:12:00;-2.10;99.90
6377;DHT22;3221;48.858;10.128;2024-01-15T14:14:26;-2.10;99.90
6377;DHT22;3221;48.858;10.128;2024-01-15T14:16:53;-2.10;99.90
6377;DHT22;3221;48.858;10.128;2024-01-15T14:19:20;-2.10;99.90
6377;DHT22;3221;48.858;10.128;2024-01-15T14:21:48;-2.10;99.90
6377;DHT22;3221;48.858;10.128;2024-01-15T14:24:15;-2.10;99.90
6377;DHT22;3221;48.858;10.128;2024-01-15T14:26:44;-2.10;99.90
6377;DHT22;3221;48.858;10.128;2024-01-15T14:29:10;-2.10;99.90
6377;DHT22;3221;48.858;10.128;2024-01-15T14:31:37;-2.10;99.90
6377;DHT22;3221;48.858;10.128;2024-01-15T14:34:04;-2.10;99.90
6377;DHT22;3221;48.858;10.128;2024-01-15T14:36:32;-2.10;99.90
6377;DHT22;3221;48.858;10.128;2024-01-15T14:38:59;-2.10;99.90
6377;DHT22;3221;48.858;10.128;2024-01-15T14:41:26;-2.20;99.90
6377;DHT22;3221;48.858;10.128;2024-01-15T14:43:53;-2.10;99.90
6377;DHT22;3221;48.858;10.128;2024-01-15T14:46:19;-2.10;99.90
6377;DHT22;3221;48.858;10.128;2024-01-15T14:48:47;-2.20;99.90
6377;DHT22;3221;48.858;10.128;2024-01-15T14:51:14;-2.10;99.90
6377;DHT22;3221;48.858;10.128;2024-01-15T14:53:42;-2.10;99.90
6377;DHT22;3221;48.858;10.128;2024-01-15T14:56:10;-2.00;99.90
6377;DHT22;3221;48.858;10.128;2024-01-15T14:58:38;-2.10;99.90
6377;DHT22;3221;48.858;10.128;2024-01-15T15:01:05;-2.00;99.90
6377;DHT22;3221;48.858;10.128;2024-01-15T15:03:32;-2.10;99.90
6377;DHT22;3221;48.858;10.128;2024-01-15T15:05:59;-2.10;99.90
6377;DHT22;3221;48.858;10.128;2024-01-15T15:08:26;-2.10;99.90
6377;DHT22;3221;48.858;10.128;2024-01-15T15:10:53;-2.10;99.90
6377;DHT22;3221;48.858;10.128;2024-01-15T15:13:20;-2.10;99.90
6377;DHT22;3221;48.858;10.128;2024-01-15T15:16:03;-2.00;99.90
6377;DHT22;3221;48.858;10.128;2024-01-15T15:18:30;-2.00;99.90
6377;DHT22;3221;48.858;10.128;2024-01-15T15:20:57;-2.00;99.90
6377;DHT22;3221;48.858;10.128;2024-01-15T15:23:25;-2.10;99.90
6377;DHT22;3221;48.858;10.128;2024-01-15T15:25:52;-2.10;99.90
6377;DHT22;3221;48.858;10.128;2024-01-15T15:28:19;-2.10;99.90
6377;DHT22;3221;48.858;10.128;2024-01-15T15:30:45;-2.10;99.90
6377;DHT22;3221;48.858;10.128;2024-01-15T15:33:12;-2.10;99.90
6377;DHT22;3221;48.858;10.128;2024-01-15T15:35:40;-2.10;99.90
6377;DHT22;3221;48.858;10.128;2024-01-15T15:38:06;-2.10;99.90
6377;DHT22;3221;48.858;10.128;2024-01-15T15:40:33;-2.10;99.90
6377;DHT22;3221;48.858;10.128;2024-01-15T15:43:00;-2.10;99.90
6377;DHT22;3221;48.858;10.128;2024-01-15T15:45:27;-2.10;99.90
6377;DHT22;3221;48.858;10.128;2024-01-15T15:47:54;-2.10;99.90
6377;DHT22;3221;48.858;10.128;2024-01-15T15:50:21;-2.10;99.90